Time;durP1;ratioP1;P1;durP2;ratioP2;P2;SDS_P1;SDS_P2;PMS_P1;PMS_P2;Temp;Humidity;BMP_temperature;BMP_pressure;BME280_temperature;BME280_humidity;BME280_pressure;Samples;Min_cycle;Max_cycle;Signal;HPM_P1;HPM_P2
2021/12/08 00:01:23;;;;;;;12.27;2.63;;;;;;;;;;5040184;28;20234;-78
2021/12/08 00:03:51;;;;;;;12.50;3.75;;;;;;;;;;5033842;28;20585;-78
2021/12/08 00:06:18;;;;;;;9.90;3.13;;;;;;;;;;5034478;28;20290;-78
2021/12/08 00:09:00;;;;;;;10.07;3.33;;;;;;;;;;5037815;28;20270;-78
2021/12/08 00:14:14;;;;;;;11.40;2.70;;;;;;;;;;5032681;28;20218;-78
2021/12/08 00:16:41;;;;;;;7.57;3.63;;;;;;;;;;5033363;28;20239;-78
2021/12/08 00:19:09;;;;;;;11.43;3.60;;;;;;;;;;5037898;28;20227;-78
2021/12/08 00:21:36;;;;;;;14.13;3.70;;;;;;;;;;5033368;28;20310;-78
2021/12/08 00:24:03;;;;;;;7.47;2.90;;;;;;;;;;5033253;28;20289;-78
2021/12/08 00:26:32;;;;;;;11.90;3.63;;;;;;;;;;5032360;28;20215;-78
2021/12/08 00:28:59;;;;;;;15.27;3.43;;;;;;;;;;5031172;28;20231;-78
2021/12/08 00:31:26;;;;;;;8.30;3.67;;;;;;;;;;5032843;28;20304;-78
2021/12/08 00:33:53;;;;;;;8.97;3.33;;;;;;;;;;5026073;28;20199;-77
2021/12/08 00:36:27;;;;;;;10.73;3.50;;;;;;;;;;5031898;28;20462;-77
2021/12/08 00:38:54;;;;;;;11.67;3.87;;;;;;;;;;5030308;28;20227;-78
2021/12/08 00:41:22;;;;;;;8.97;3.10;;;;;;;;;;5032883;28;20244;-78
2021/12/08 00:43:50;;;;;;;7.50;3.27;;;;;;;;;;5030676;28;21049;-78
2021/12/08 00:46:17;;;;;;;17.77;4.07;;;;;;;;;;5031789;28;20295;-78
2021/12/08 00:48:49;;;;;;;11.50;3.43;;;;;;;;;;5036162;28;20266;-77
2021/12/08 00:51:16;;;;;;;11.23;3.80;;;;;;;;;;5038556;28;20199;-78
2021/12/08 00:53:43;;;;;;;17.50;3.87;;;;;;;;;;5030467;28;20210;-78
2021/12/08 00:56:10;;;;;;;13.50;4.07;;;;;;;;;;5034003;28;20247;-77
2021/12/08 00:58:38;;;;;;;12.10;3.50;;;;;;;;;;5030242;28;20229;-77
2021/12/08 01:01:07;;;;;;;12.57;3.47;;;;;;;;;;5034752;28;20220;-79
2021/12/08 01:03:35;;;;;;;14.30;3.93;;;;;;;;;;5033360;28;20448;-77
2021/12/08 01:06:03;;;;;;;10.00;3.30;;;;;;;;;;5033757;28;20294;-78
2021/12/08 01:08:31;;;;;;;6.10;3.00;;;;;;;;;;5031309;28;20253;-78
2021/12/08 01:11:00;;;;;;;9.80;3.20;;;;;;;;;;5030928;28;20291;-78
2021/12/08 01:13:27;;;;;;;10.83;3.47;;;;;;;;;;5038429;28;20227;-78
2021/12/08 01:15:56;;;;;;;10.37;2.90;;;;;;;;;;5039223;28;20211;-79
2021/12/08 01:18:25;;;;;;;10.53;3.43;;;;;;;;;;5038784;28;20262;-77
2021/12/08 01:20:53;;;;;;;8.80;3.27;;;;;;;;;;5041573;28;20228;-77
2021/12/08 01:23:21;;;;;;;9.33;3.40;;;;;;;;;;5043985;28;20230;-77
2021/12/08 01:25:48;;;;;;;10.07;3.43;;;;;;;;;;5038172;28;20729;-78
2021/12/08 01:28:18;;;;;;;7.90;3.10;;;;;;;;;;5037926;28;20247;-79
2021/12/08 01:30:45;;;;;;;6.67;3.00;;;;;;;;;;5039271;28;20264;-78
2021/12/08 01:33:13;;;;;;;5.83;3.07;;;;;;;;;;5036384;28;20295;-78
2021/12/08 01:35:43;;;;;;;8.47;3.03;;;;;;;;;;5036184;28;20207;-78
2021/12/08 01:38:10;;;;;;;6.37;2.70;;;;;;;;;;5035878;28;20242;-78
2021/12/08 01:40:37;;;;;;;6.83;2.50;;;;;;;;;;5032898;28;20318;-78
2021/12/08 01:43:11;;;;;;;9.83;2.97;;;;;;;;;;5030136;28;21250;-77
2021/12/08 01:48:23;;;;;;;6.37;2.77;;;;;;;;;;5034179;28;20480;-79
2021/12/08 01:50:53;;;;;;;5.67;2.73;;;;;;;;;;5033347;28;20670;-77
2021/12/08 01:53:21;;;;;;;7.67;2.70;;;;;;;;;;5033329;28;20576;-78
2021/12/08 01:55:48;;;;;;;5.63;2.53;;;;;;;;;;5034605;28;20729;-78
2021/12/08 01:58:16;;;;;;;6.20;2.67;;;;;;;;;;5032371;28;20349;-78
2021/12/08 02:00:44;;;;;;;9.47;2.70;;;;;;;;;;5033674;28;20221;-78
2021/12/08 02:03:12;;;;;;;7.50;2.20;;;;;;;;;;5033956;28;20257;-78
2021/12/08 02:05:39;;;;;;;3.87;2.30;;;;;;;;;;5032273;28;20298;-78
2021/12/08 02:08:08;;;;;;;7.20;2.50;;;;;;;;;;5030111;28;20656;-77
2021/12/08 02:10:37;;;;;;;4.70;2.07;;;;;;;;;;5035068;28;20202;-79
2021/12/08 02:13:04;;;;;;;5.03;2.40;;;;;;;;;;5040605;28;20211;-79
2021/12/08 02:15:33;;;;;;;7.43;2.60;;;;;;;;;;5034042;28;20208;-79
2021/12/08 02:18:00;;;;;;;4.13;2.40;;;;;;;;;;5035110;28;20220;-79
2021/12/08 02:20:29;;;;;;;5.93;2.40;;;;;;;;;;5036325;28;20290;-79
2021/12/08 02:22:57;;;;;;;4.13;2.30;;;;;;;;;;5042414;28;20311;-78
2021/12/08 02:25:26;;;;;;;4.40;2.60;;;;;;;;;;5034093;28;21050;-79
2021/12/08 02:27:54;;;;;;;3.20;1.80;;;;;;;;;;5038163;28;20595;-79
2021/12/08 02:30:28;;;;;;;5.10;2.53;;;;;;;;;;5037134;28;20274;-78
2021/12/08 02:46:48;;;;;;;4.97;2.30;;;;;;;;;;5027755;28;20256;-77
2021/12/08 02:49:16;;;;;;;6.10;2.70;;;;;;;;;;5024631;28;20235;-78
2021/12/08 02:51:43;;;;;;;4.57;2.30;;;;;;;;;;5025834;28;20218;-76
2021/12/08 02:54:12;;;;;;;5.67;2.90;;;;;;;;;;5024152;28;20775;-75
2021/12/08 02:56:39;;;;;;;5.37;2.83;;;;;;;;;;5031978;23;20239;-77
2021/12/08 02:59:08;;;;;;;5.80;2.60;;;;;;;;;;5006974;28;20234;-77
2021/12/08 03:01:35;;;;;;;8.33;2.73;;;;;;;;;;5010055;28;20506;-80
2021/12/08 03:04:03;;;;;;;9.17;3.40;;;;;;;;;;5007698;28;20669;-80
2021/12/08 03:06:30;;;;;;;10.57;3.17;;;;;;;;;;5012482;28;20236;-78
2021/12/08 03:08:58;;;;;;;4.77;2.13;;;;;;;;;;5007245;28;20693;-80
2021/12/08 03:11:26;;;;;;;8.10;3.17;;;;;;;;;;5004576;28;20210;-78
2021/12/08 03:14:02;;;;;;;5.13;2.70;;;;;;;;;;5005557;28;20291;-79
2021/12/08 03:16:29;;;;;;;13.80;3.77;;;;;;;;;;5006061;28;20286;-82
2021/12/08 03:18:56;;;;;;;9.70;3.30;;;;;;;;;;5007524;28;20314;-81
2021/12/08 03:21:29;;;;;;;8.47;3.27;;;;;;;;;;5006583;28;20311;-77
2021/12/08 03:24:08;;;;;;;8.47;3.30;;;;;;;;;;5003397;28;20228;-77
2021/12/08 03:26:46;;;;;;;7.83;3.03;;;;;;;;;;5004531;28;20215;-79
2021/12/08 03:29:22;;;;;;;6.43;2.90;;;;;;;;;;5007178;28;20227;-80
2021/12/08 03:31:52;;;;;;;15.87;3.20;;;;;;;;;;5004414;28;20339;-81
2021/12/08 03:34:22;;;;;;;7.23;3.87;;;;;;;;;;5007137;28;20204;-80
2021/12/08 03:36:49;;;;;;;8.30;3.97;;;;;;;;;;5002106;28;20208;-82
2021/12/08 03:39:16;;;;;;;8.57;3.27;;;;;;;;;;5001036;28;20232;-79
2021/12/08 03:41:46;;;;;;;11.67;3.77;;;;;;;;;;5002143;28;20780;-80
2021/12/08 03:44:14;;;;;;;8.87;3.67;;;;;;;;;;5007768;28;20212;-80
2021/12/08 03:46:42;;;;;;;10.13;4.40;;;;;;;;;;5004156;28;20211;-78
2021/12/08 03:49:11;;;;;;;13.37;4.13;;;;;;;;;;5007067;28;20620;-81
2021/12/08 03:51:39;;;;;;;8.97;4.00;;;;;;;;;;5018145;28;20196;-81
2021/12/08 03:54:06;;;;;;;9.27;4.50;;;;;;;;;;5009713;28;20192;-80
2021/12/08 03:56:33;;;;;;;9.47;3.83;;;;;;;;;;5018811;28;20238;-81
2021/12/08 03:59:02;;;;;;;8.20;4.03;;;;;;;;;;5016783;28;20329;-82
2021/12/08 04:01:29;;;;;;;10.37;4.20;;;;;;;;;;5020281;28;20365;-81
2021/12/08 04:04:02;;;;;;;13.03;5.00;;;;;;;;;;5017282;28;20242;-81
2021/12/08 04:06:32;;;;;;;14.20;4.90;;;;;;;;;;5016698;28;20251;-80
2021/12/08 04:09:06;;;;;;;15.73;5.07;;;;;;;;;;5016728;28;20255;-81
2021/12/08 04:11:33;;;;;;;9.53;4.57;;;;;;;;;;5023955;28;20378;-82
2021/12/08 04:14:04;;;;;;;15.43;4.80;;;;;;;;;;5019031;28;20212;-82
2021/12/08 04:16:34;;;;;;;11.73;4.80;;;;;;;;;;5018695;28;20211;-81
2021/12/08 04:19:02;;;;;;;8.40;3.93;;;;;;;;;;5019444;28;20230;-83
2021/12/08 04:21:29;;;;;;;13.20;4.93;;;;;;;;;;5014675;28;20537;-79
2021/12/08 04:23:57;;;;;;;12.30;5.00;;;;;;;;;;5020261;28;20227;-77
2021/12/08 04:26:25;;;;;;;18.83;5.33;;;;;;;;;;5026902;28;20238;-81
2021/12/08 04:28:53;;;;;;;13.20;5.50;;;;;;;;;;5010104;28;20263;-81
2021/12/08 04:31:23;;;;;;;12.97;5.20;;;;;;;;;;5008863;28;20283;-80
2021/12/08 04:33:53;;;;;;;11.70;5.13;;;;;;;;;;5013614;28;20227;-82
2021/12/08 04:36:21;;;;;;;9.83;5.40;;;;;;;;;;5018523;28;20287;-82
2021/12/08 04:38:53;;;;;;;10.60;4.87;;;;;;;;;;5019706;28;20228;-81
2021/12/08 04:41:27;;;;;;;8.63;4.17;;;;;;;;;;5019036;28;20259;-82
2021/12/08 04:44:01;;;;;;;13.70;4.70;;;;;;;;;;5011952;28;20657;-79
2021/12/08 04:46:47;;;;;;;8.00;4.37;;;;;;;;;;5017421;28;20449;-83
2021/12/08 04:49:31;;;;;;;9.30;4.43;;;;;;;;;;5016693;28;21020;-79
2021/12/08 04:52:06;;;;;;;21.57;4.70;;;;;;;;;;5009676;28;20211;-79
2021/12/08 05:00:28;;;;;;;10.43;4.57;;;;;;;;;;5020603;28;20211;-79
2021/12/08 05:03:21;;;;;;;8.63;4.40;;;;;;;;;;5018120;28;20278;-79
2021/12/08 05:06:05;;;;;;;9.23;4.33;;;;;;;;;;5026923;28;20548;-80
2021/12/08 05:08:41;;;;;;;17.13;4.73;;;;;;;;;;5022358;28;20216;-80
2021/12/08 05:11:09;;;;;;;7.73;4.60;;;;;;;;;;5022704;28;20939;-79
2021/12/08 05:13:36;;;;;;;9.97;4.73;;;;;;;;;;5021957;28;20235;-80
2021/12/08 05:16:04;;;;;;;8.90;4.33;;;;;;;;;;5019411;28;20351;-79
2021/12/08 05:18:34;;;;;;;12.67;4.37;;;;;;;;;;5016345;28;20224;-80
2021/12/08 05:21:05;;;;;;;10.17;4.43;;;;;;;;;;5019224;28;20299;-79
2021/12/08 05:23:34;;;;;;;9.10;4.23;;;;;;;;;;5019024;28;20232;-80
2021/12/08 05:26:03;;;;;;;10.27;4.63;;;;;;;;;;5020104;28;20231;-79
2021/12/08 05:28:31;;;;;;;10.67;4.97;;;;;;;;;;5019483;28;20274;-80
2021/12/08 05:31:00;;;;;;;11.53;4.43;;;;;;;;;;5023064;28;20236;-81
2021/12/08 05:33:28;;;;;;;10.47;5.20;;;;;;;;;;5025563;28;20236;-80
2021/12/08 05:35:57;;;;;;;7.47;4.67;;;;;;;;;;5024309;28;20702;-79
2021/12/08 05:38:24;;;;;;;11.97;4.90;;;;;;;;;;5023732;28;20247;-80
2021/12/08 05:40:53;;;;;;;9.10;5.03;;;;;;;;;;5021645;28;20299;-80
2021/12/08 05:43:21;;;;;;;16.47;5.30;;;;;;;;;;5021516;28;20359;-79
2021/12/08 05:45:49;;;;;;;14.63;5.70;;;;;;;;;;5014486;28;20232;-79
2021/12/08 05:48:17;;;;;;;13.27;5.60;;;;;;;;;;5016642;28;20280;-80
2021/12/08 05:50:48;;;;;;;12.47;5.63;;;;;;;;;;5016653;28;20648;-81
2021/12/08 05:53:16;;;;;;;13.50;5.17;;;;;;;;;;5015172;28;20243;-80
2021/12/08 05:55:44;;;;;;;12.30;5.37;;;;;;;;;;5012486;28;20645;-80
2021/12/08 05:58:13;;;;;;;9.50;5.50;;;;;;;;;;5010851;28;21419;-81
2021/12/08 06:00:42;;;;;;;13.83;5.77;;;;;;;;;;5014340;28;21440;-81
2021/12/08 06:03:10;;;;;;;14.10;6.13;;;;;;;;;;5004745;28;20215;-81
2021/12/08 06:05:38;;;;;;;15.53;6.40;;;;;;;;;;5005227;28;20661;-80
2021/12/08 06:08:06;;;;;;;14.00;6.47;;;;;;;;;;5015679;28;20231;-80
2021/12/08 06:10:36;;;;;;;12.10;5.97;;;;;;;;;;5015947;28;20674;-79
2021/12/08 06:13:05;;;;;;;17.83;7.27;;;;;;;;;;5019062;28;20254;-79
2021/12/08 06:15:33;;;;;;;15.77;6.87;;;;;;;;;;5020964;28;20236;-81
2021/12/08 06:18:00;;;;;;;13.20;6.17;;;;;;;;;;5030709;28;20208;-80
2021/12/08 06:20:27;;;;;;;15.73;7.10;;;;;;;;;;5018220;28;20246;-82
2021/12/08 06:22:56;;;;;;;16.20;7.57;;;;;;;;;;5017846;28;20251;-82
2021/12/08 06:25:24;;;;;;;14.90;5.90;;;;;;;;;;5019078;28;20218;-83
2021/12/08 06:27:53;;;;;;;15.10;5.90;;;;;;;;;;5020862;28;20643;-81
2021/12/08 06:30:21;;;;;;;16.87;6.77;;;;;;;;;;5016662;28;20761;-83
2021/12/08 06:32:49;;;;;;;11.90;6.30;;;;;;;;;;5022511;28;20204;-82
2021/12/08 06:35:18;;;;;;;17.00;6.10;;;;;;;;;;5018809;28;20290;-83
2021/12/08 06:37:46;;;;;;;14.23;7.10;;;;;;;;;;5019170;28;20645;-82
2021/12/08 06:40:17;;;;;;;16.70;6.63;;;;;;;;;;5023421;28;20715;-83
2021/12/08 06:42:46;;;;;;;17.00;7.27;;;;;;;;;;5020214;28;20291;-86
2021/12/08 06:45:17;;;;;;;17.40;7.30;;;;;;;;;;5022721;28;20287;-80
2021/12/08 06:47:45;;;;;;;18.70;7.20;;;;;;;;;;5019410;28;20228;-79
2021/12/08 06:50:14;;;;;;;12.70;6.20;;;;;;;;;;5019076;28;20546;-82
2021/12/08 06:52:41;;;;;;;14.03;7.77;;;;;;;;;;5022319;28;20209;-82
2021/12/08 06:55:11;;;;;;;22.70;9.47;;;;;;;;;;5015152;28;20596;-80
2021/12/08 06:57:39;;;;;;;24.07;10.60;;;;;;;;;;5013529;28;20307;-81
2021/12/08 07:00:19;;;;;;;21.53;9.43;;;;;;;;;;5011625;28;20236;-80
2021/12/08 07:03:00;;;;;;;17.80;8.83;;;;;;;;;;5013166;28;20212;-82
2021/12/08 07:05:52;;;;;;;19.83;9.40;;;;;;;;;;5014830;28;20204;-83
2021/12/08 07:08:18;;;;;;;22.53;11.40;;;;;;;;;;5012688;28;20220;-83
2021/12/08 07:10:46;;;;;;;23.17;11.20;;;;;;;;;;5011153;28;20967;-82
2021/12/08 07:13:16;;;;;;;21.57;10.87;;;;;;;;;;5016608;28;20710;-82
2021/12/08 07:15:46;;;;;;;20.53;10.40;;;;;;;;;;5017189;28;20297;-78
2021/12/08 07:18:17;;;;;;;22.67;10.83;;;;;;;;;;5008529;28;20717;-79
2021/12/08 07:20:47;;;;;;;25.83;12.17;;;;;;;;;;5010569;28;20223;-82
2021/12/08 07:23:15;;;;;;;26.00;11.80;;;;;;;;;;5014243;28;20344;-82
2021/12/08 07:25:43;;;;;;;26.50;11.77;;;;;;;;;;5014245;28;20268;-82
2021/12/08 07:28:11;;;;;;;19.63;9.37;;;;;;;;;;5018961;28;20250;-81
2021/12/08 07:30:42;;;;;;;23.73;9.40;;;;;;;;;;5017256;28;20250;-83
2021/12/08 07:33:09;;;;;;;26.10;9.77;;;;;;;;;;5018682;28;20804;-80
2021/12/08 07:35:41;;;;;;;19.27;8.93;;;;;;;;;;5018451;28;20209;-81
2021/12/08 07:38:09;;;;;;;21.87;9.40;;;;;;;;;;5020254;28;20227;-83
2021/12/08 07:40:42;;;;;;;25.90;9.53;;;;;;;;;;5018770;28;20410;-81
2021/12/08 07:43:11;;;;;;;20.40;9.50;;;;;;;;;;5016338;28;20228;-82
2021/12/08 07:45:41;;;;;;;25.60;11.03;;;;;;;;;;5020288;28;20232;-79
2021/12/08 07:48:09;;;;;;;23.67;9.90;;;;;;;;;;5018032;28;20255;-79
2021/12/08 07:50:37;;;;;;;17.30;9.20;;;;;;;;;;5017640;28;20247;-80
2021/12/08 07:53:07;;;;;;;18.10;9.23;;;;;;;;;;5017030;28;20236;-81
2021/12/08 07:55:35;;;;;;;17.27;9.90;;;;;;;;;;5018161;28;20679;-79
2021/12/08 07:58:02;;;;;;;21.47;9.80;;;;;;;;;;5022732;28;20269;-81
2021/12/08 08:00:33;;;;;;;23.37;9.77;;;;;;;;;;5018712;28;20666;-82
2021/12/08 08:03:01;;;;;;;20.40;9.37;;;;;;;;;;5016028;28;20311;-83
2021/12/08 08:05:29;;;;;;;22.83;9.80;;;;;;;;;;5019568;28;20258;-83
2021/12/08 08:07:57;;;;;;;20.60;9.77;;;;;;;;;;5019928;28;20255;-83
2021/12/08 08:10:28;;;;;;;23.70;10.20;;;;;;;;;;5023454;28;20312;-82
2021/12/08 08:13:00;;;;;;;22.97;11.30;;;;;;;;;;5026305;28;20258;-81
2021/12/08 08:15:28;;;;;;;30.83;12.27;;;;;;;;;;5023464;28;20204;-80
2021/12/08 08:17:55;;;;;;;24.27;10.53;;;;;;;;;;5023615;28;20199;-82
2021/12/08 08:20:25;;;;;;;22.13;9.87;;;;;;;;;;5018617;28;20214;-79
2021/12/08 08:22:52;;;;;;;17.87;9.47;;;;;;;;;;5015630;28;20259;-81
2021/12/08 08:25:21;;;;;;;20.07;9.57;;;;;;;;;;5015814;28;20225;-82
2021/12/08 08:27:50;;;;;;;21.83;10.20;;;;;;;;;;5013928;28;20231;-81
2021/12/08 08:30:20;;;;;;;21.33;9.80;;;;;;;;;;5013987;28;20208;-79
2021/12/08 08:32:49;;;;;;;20.17;9.60;;;;;;;;;;5018212;28;20388;-84
2021/12/08 08:35:18;;;;;;;19.53;9.93;;;;;;;;;;5016945;28;20212;-82
2021/12/08 08:37:47;;;;;;;20.23;11.03;;;;;;;;;;5021479;28;20235;-83
2021/12/08 08:40:18;;;;;;;25.77;10.37;;;;;;;;;;5019593;28;20250;-84
2021/12/08 08:42:46;;;;;;;23.90;10.27;;;;;;;;;;5019370;28;20227;-82
2021/12/08 08:45:19;;;;;;;21.33;11.00;;;;;;;;;;5020441;28;20239;-85
2021/12/08 08:47:50;;;;;;;17.87;9.90;;;;;;;;;;5014140;28;20236;-84
2021/12/08 08:50:20;;;;;;;27.87;10.00;;;;;;;;;;5019516;28;20232;-84
2021/12/08 08:52:49;;;;;;;19.50;9.60;;;;;;;;;;5020481;28;20220;-84
2021/12/08 08:55:18;;;;;;;16.60;9.53;;;;;;;;;;5018163;28;20266;-84
2021/12/08 08:57:47;;;;;;;28.17;9.60;;;;;;;;;;5056387;23;20228;-84
2021/12/08 09:00:19;;;;;;;19.20;9.83;;;;;;;;;;5028487;28;20207;-83
2021/12/08 09:02:47;;;;;;;20.30;9.37;;;;;;;;;;5028946;28;20223;-82
2021/12/08 09:05:18;;;;;;;25.60;10.97;;;;;;;;;;5031202;28;20708;-82
2021/12/08 09:07:50;;;;;;;23.60;9.90;;;;;;;;;;5033748;28;20254;-83
2021/12/08 09:10:20;;;;;;;21.03;9.87;;;;;;;;;;5026165;28;20314;-81
2021/12/08 09:12:50;;;;;;;19.70;9.37;;;;;;;;;;5032351;28;20275;-82
2021/12/08 09:15:20;;;;;;;24.30;10.70;;;;;;;;;;5028489;28;20191;-83
2021/12/08 09:17:49;;;;;;;21.77;10.90;;;;;;;;;;5034925;28;20219;-82
2021/12/08 09:20:21;;;;;;;25.70;11.03;;;;;;;;;;5025978;28;20647;-81
2021/12/08 09:22:55;;;;;;;24.53;9.83;;;;;;;;;;5032699;28;20235;-83
2021/12/08 09:25:25;;;;;;;20.07;8.50;;;;;;;;;;5034662;28;20267;-82
2021/12/08 09:27:54;;;;;;;28.57;10.30;;;;;;;;;;5032989;28;20331;-82
2021/12/08 09:30:24;;;;;;;26.30;10.95;;;;;;;;;;5032266;28;20550;-81
2021/12/08 09:32:53;;;;;;;23.83;9.60;;;;;;;;;;5034438;28;20690;-84
2021/12/08 09:35:22;;;;;;;21.67;10.10;;;;;;;;;;5036574;28;20638;-83
2021/12/08 09:37:51;;;;;;;27.83;10.50;;;;;;;;;;5033375;28;20312;-83
2021/12/08 09:40:22;;;;;;;22.07;10.27;;;;;;;;;;5038841;28;20286;-83
2021/12/08 09:42:51;;;;;;;21.17;11.13;;;;;;;;;;5037955;28;20222;-83
2021/12/08 09:45:21;;;;;;;26.27;11.00;;;;;;;;;;5035751;28;20298;-84
2021/12/08 09:47:50;;;;;;;24.37;10.60;;;;;;;;;;5035098;28;20299;-84
2021/12/08 09:50:17;;;;;;;23.20;10.30;;;;;;;;;;5031899;28;20701;-83
2021/12/08 09:52:56;;;;;;;22.87;10.17;;;;;;;;;;5030475;28;20254;-83
2021/12/08 09:55:25;;;;;;;22.70;10.57;;;;;;;;;;5035700;28;20225;-82
2021/12/08 09:57:54;;;;;;;22.30;10.00;;;;;;;;;;5035022;28;20241;-83
2021/12/08 10:00:29;;;;;;;21.63;10.87;;;;;;;;;;5040993;28;20203;-83
2021/12/08 10:06:04;;;;;;;22.50;10.10;;;;;;;;;;5063174;23;20234;-84
2021/12/08 10:08:32;;;;;;;33.50;9.63;;;;;;;;;;5011298;28;20257;-83
2021/12/08 10:10:59;;;;;;;26.93;11.13;;;;;;;;;;4990167;28;20236;-83
2021/12/08 10:13:26;;;;;;;23.70;10.93;;;;;;;;;;4998252;28;20189;-85
2021/12/08 10:15:54;;;;;;;24.73;11.03;;;;;;;;;;5007997;28;20255;-84
2021/12/08 10:18:21;;;;;;;22.90;11.30;;;;;;;;;;5000083;28;20749;-84
2021/12/08 10:20:50;;;;;;;23.50;11.10;;;;;;;;;;4994997;28;20741;-84
2021/12/08 10:23:22;;;;;;;22.20;11.07;;;;;;;;;;5012314;22;20415;-81
2021/12/08 10:25:51;;;;;;;26.77;11.43;;;;;;;;;;5021912;28;20621;-79
2021/12/08 10:28:19;;;;;;;21.93;11.00;;;;;;;;;;5015931;28;20648;-80
2021/12/08 10:30:48;;;;;;;26.43;11.30;;;;;;;;;;4998547;28;20208;-79
2021/12/08 10:33:45;;;;;;;23.00;10.80;;;;;;;;;;5006044;28;20696;-79
2021/12/08 10:36:23;;;;;;;22.40;10.73;;;;;;;;;;5001846;28;20221;-79
2021/12/08 10:38:52;;;;;;;24.33;11.13;;;;;;;;;;5004598;28;21023;-79
2021/12/08 10:41:19;;;;;;;24.47;11.57;;;;;;;;;;5001255;28;20224;-79
2021/12/08 10:43:58;;;;;;;25.93;10.87;;;;;;;;;;5002255;28;20286;-79
2021/12/08 10:46:33;;;;;;;24.33;11.40;;;;;;;;;;5003311;28;20310;-80
2021/12/08 10:49:12;;;;;;;31.23;11.50;;;;;;;;;;5004679;28;20377;-79
2021/12/08 10:54:32;;;;;;;22.97;10.73;;;;;;;;;;5001284;28;20263;-80
2021/12/08 10:57:00;;;;;;;27.27;12.07;;;;;;;;;;5000378;28;20251;-79
2021/12/08 10:59:28;;;;;;;27.73;10.60;;;;;;;;;;5003628;28;20665;-80
2021/12/08 11:01:59;;;;;;;22.70;11.13;;;;;;;;;;5003643;28;20582;-78
2021/12/08 11:04:30;;;;;;;21.70;10.80;;;;;;;;;;5008604;28;20283;-79
2021/12/08 11:07:08;;;;;;;21.53;10.90;;;;;;;;;;5006063;28;20240;-80
2021/12/08 11:09:43;;;;;;;26.63;12.07;;;;;;;;;;5003597;28;20256;-79
2021/12/08 11:12:10;;;;;;;29.77;10.67;;;;;;;;;;5005151;28;20263;-80
2021/12/08 11:14:45;;;;;;;28.43;10.67;;;;;;;;;;5008269;28;20299;-79
2021/12/08 11:17:25;;;;;;;21.73;10.53;;;;;;;;;;5002320;28;20203;-80
2021/12/08 11:20:13;;;;;;;22.20;10.33;;;;;;;;;;5003732;28;20227;-79
2021/12/08 11:22:40;;;;;;;26.93;11.50;;;;;;;;;;5006100;28;20232;-82
2021/12/08 11:25:21;;;;;;;19.47;9.70;;;;;;;;;;5006394;28;20256;-79
2021/12/08 11:27:48;;;;;;;21.57;10.23;;;;;;;;;;5009684;28;20729;-79
2021/12/08 11:30:17;;;;;;;19.57;10.30;;;;;;;;;;5009658;28;20251;-80
2021/12/08 11:32:45;;;;;;;22.70;10.20;;;;;;;;;;5006728;28;20220;-80
2021/12/08 11:35:19;;;;;;;18.53;10.23;;;;;;;;;;5009563;28;20208;-80
2021/12/08 11:37:58;;;;;;;15.60;9.03;;;;;;;;;;5006213;28;20201;-80
2021/12/08 11:40:26;;;;;;;24.47;9.90;;;;;;;;;;5014115;28;20226;-79
2021/12/08 11:42:54;;;;;;;26.63;9.93;;;;;;;;;;5010979;28;20208;-79
2021/12/08 11:45:22;;;;;;;21.23;10.20;;;;;;;;;;5005454;28;20224;-80
2021/12/08 11:47:49;;;;;;;22.03;9.67;;;;;;;;;;5008254;28;20216;-80
2021/12/08 11:50:19;;;;;;;23.67;10.60;;;;;;;;;;5004817;28;20212;-80
2021/12/08 11:52:52;;;;;;;19.70;9.40;;;;;;;;;;5001333;28;20204;-80
2021/12/08 11:55:20;;;;;;;21.73;10.20;;;;;;;;;;5003702;28;20753;-81
2021/12/08 11:57:49;;;;;;;18.87;9.77;;;;;;;;;;5006555;28;20292;-80
2021/12/08 12:00:18;;;;;;;26.80;10.33;;;;;;;;;;5010143;28;20305;-80
2021/12/08 12:02:47;;;;;;;18.00;9.60;;;;;;;;;;5016353;28;20200;-80
2021/12/08 12:05:16;;;;;;;18.03;8.97;;;;;;;;;;5009657;28;20254;-80
2021/12/08 12:07:43;;;;;;;21.33;9.80;;;;;;;;;;5010730;28;20568;-80
2021/12/08 12:10:12;;;;;;;24.87;10.33;;;;;;;;;;5005962;28;20220;-79
2021/12/08 12:12:41;;;;;;;30.33;10.40;;;;;;;;;;5007864;28;20209;-79
2021/12/08 12:15:11;;;;;;;22.20;10.77;;;;;;;;;;5009600;28;20197;-79
2021/12/08 12:17:38;;;;;;;21.93;9.93;;;;;;;;;;5009272;28;20243;-80
2021/12/08 12:23:21;;;;;;;22.20;9.47;;;;;;;;;;5004696;28;20203;-81
2021/12/08 12:26:03;;;;;;;22.33;9.40;;;;;;;;;;5005455;28;20200;-81
2021/12/08 12:28:58;;;;;;;20.87;10.07;;;;;;;;;;5011805;28;20697;-80
2021/12/08 12:31:29;;;;;;;23.00;9.50;;;;;;;;;;5005689;28;20794;-80
2021/12/08 12:33:57;;;;;;;17.93;9.13;;;;;;;;;;5006930;28;20241;-80
2021/12/08 12:36:26;;;;;;;21.13;9.93;;;;;;;;;;5007035;28;20240;-80
2021/12/08 12:38:54;;;;;;;21.17;10.00;;;;;;;;;;5005496;28;20267;-80
2021/12/08 12:41:27;;;;;;;19.33;9.27;;;;;;;;;;5002583;28;20243;-80
2021/12/08 12:44:13;;;;;;;21.47;10.67;;;;;;;;;;5003684;28;20663;-80
2021/12/08 12:47:03;;;;;;;22.50;10.00;;;;;;;;;;4997755;28;20623;-80
2021/12/08 12:49:31;;;;;;;20.10;10.20;;;;;;;;;;4994812;28;21686;-80
2021/12/08 12:51:59;;;;;;;25.60;8.93;;;;;;;;;;5003604;28;20331;-80
2021/12/08 12:54:27;;;;;;;16.60;8.80;;;;;;;;;;5005626;28;20276;-80
2021/12/08 12:56:55;;;;;;;27.57;9.53;;;;;;;;;;5004112;28;20729;-80
2021/12/08 12:59:26;;;;;;;23.17;9.77;;;;;;;;;;4999668;28;20970;-80
2021/12/08 13:02:06;;;;;;;22.80;8.93;;;;;;;;;;5004111;28;20204;-80
2021/12/08 13:04:35;;;;;;;23.50;9.83;;;;;;;;;;5003343;28;20307;-80
2021/12/08 13:07:03;;;;;;;24.97;9.43;;;;;;;;;;4999945;28;20223;-80
2021/12/08 13:09:41;;;;;;;18.13;8.67;;;;;;;;;;5002784;28;20244;-81
2021/12/08 13:12:09;;;;;;;17.70;8.70;;;;;;;;;;4999094;28;20954;-81
2021/12/08 13:14:36;;;;;;;23.63;8.80;;;;;;;;;;4999712;28;20268;-81
2021/12/08 13:17:12;;;;;;;18.47;9.03;;;;;;;;;;5007488;28;20250;-81
2021/12/08 13:19:43;;;;;;;18.60;9.33;;;;;;;;;;5000194;28;20316;-81
2021/12/08 13:22:10;;;;;;;24.70;10.57;;;;;;;;;;5002074;28;20216;-81
2021/12/08 13:24:41;;;;;;;25.17;9.43;;;;;;;;;;5007439;28;20255;-82
2021/12/08 13:27:09;;;;;;;21.40;9.67;;;;;;;;;;5003147;28;20219;-80
2021/12/08 13:29:39;;;;;;;20.40;9.40;;;;;;;;;;4997617;28;20342;-80
2021/12/08 13:32:13;;;;;;;18.83;9.67;;;;;;;;;;4990617;28;20200;-80
2021/12/08 13:34:43;;;;;;;24.40;9.30;;;;;;;;;;4991155;28;20212;-80
2021/12/08 13:37:15;;;;;;;18.93;9.57;;;;;;;;;;4996905;28;22345;-80
2021/12/08 13:39:43;;;;;;;20.10;9.50;;;;;;;;;;4996722;28;20254;-80
2021/12/08 13:42:12;;;;;;;17.87;9.10;;;;;;;;;;5005427;28;20220;-81
2021/12/08 13:44:40;;;;;;;23.33;9.00;;;;;;;;;;4993052;28;20228;-80
2021/12/08 13:47:09;;;;;;;19.00;9.43;;;;;;;;;;4992367;28;20295;-80
2021/12/08 13:49:48;;;;;;;19.90;9.43;;;;;;;;;;4998141;28;20291;-81
2021/12/08 13:52:18;;;;;;;19.13;9.30;;;;;;;;;;4999212;28;20192;-82
2021/12/08 13:54:46;;;;;;;23.00;10.20;;;;;;;;;;4999012;28;20671;-81
2021/12/08 13:57:30;;;;;;;21.53;9.50;;;;;;;;;;5000966;28;20742;-81
2021/12/08 13:59:58;;;;;;;24.03;9.70;;;;;;;;;;5000631;28;20228;-81
2021/12/08 14:02:27;;;;;;;19.73;10.00;;;;;;;;;;5000852;28;20631;-79
2021/12/08 14:05:04;;;;;;;24.50;10.47;;;;;;;;;;5001715;28;21008;-82
2021/12/08 14:07:32;;;;;;;25.33;10.03;;;;;;;;;;4999526;28;20632;-82
2021/12/08 14:10:00;;;;;;;25.90;10.13;;;;;;;;;;5001872;28;20327;-81
2021/12/08 14:12:41;;;;;;;20.53;9.70;;;;;;;;;;5003224;28;20231;-81
2021/12/08 14:15:08;;;;;;;24.43;10.23;;;;;;;;;;5003184;28;20303;-81
2021/12/08 14:17:36;;;;;;;24.43;10.63;;;;;;;;;;5006872;28;20200;-81
2021/12/08 14:20:05;;;;;;;20.03;9.83;;;;;;;;;;5001900;28;20208;-81
2021/12/08 14:22:40;;;;;;;18.20;9.07;;;;;;;;;;5000198;28;20209;-81
2021/12/08 14:25:07;;;;;;;19.73;9.33;;;;;;;;;;4996641;28;20701;-81
2021/12/08 14:27:35;;;;;;;22.50;9.90;;;;;;;;;;4996203;28;20263;-80
2021/12/08 14:30:03;;;;;;;21.70;10.30;;;;;;;;;;4996678;28;20282;-80
2021/12/08 14:32:30;;;;;;;22.53;9.97;;;;;;;;;;5001757;28;20258;-80
2021/12/08 14:34:58;;;;;;;21.00;9.77;;;;;;;;;;5006782;28;20248;-81
2021/12/08 14:37:27;;;;;;;23.33;10.33;;;;;;;;;;5009114;28;20227;-81
2021/12/08 14:40:00;;;;;;;23.87;10.00;;;;;;;;;;5013757;28;20594;-80
2021/12/08 14:45:27;;;;;;;20.53;9.87;;;;;;;;;;5006519;28;20271;-80
2021/12/08 14:47:55;;;;;;;23.43;10.53;;;;;;;;;;5011360;28;20213;-80
2021/12/08 14:50:24;;;;;;;23.90;11.00;;;;;;;;;;5015657;28;20232;-80
2021/12/08 14:52:53;;;;;;;31.37;12.00;;;;;;;;;;5006790;28;20644;-80
2021/12/08 14:55:22;;;;;;;32.00;15.60;;;;;;;;;;5006712;28;20270;-80
2021/12/08 14:57:51;;;;;;;35.83;14.77;;;;;;;;;;5002799;28;20656;-80
2021/12/08 15:00:22;;;;;;;36.27;17.17;;;;;;;;;;5004370;28;20235;-80
2021/12/08 15:02:59;;;;;;;30.90;14.07;;;;;;;;;;5005278;28;20216;-81
2021/12/08 15:05:28;;;;;;;27.60;13.33;;;;;;;;;;5007980;28;20298;-80
2021/12/08 15:07:56;;;;;;;25.57;10.77;;;;;;;;;;5002559;28;20810;-80
2021/12/08 15:10:26;;;;;;;18.87;10.03;;;;;;;;;;5005736;28;20327;-80
2021/12/08 15:13:06;;;;;;;27.47;10.53;;;;;;;;;;5001310;28;20205;-81
2021/12/08 15:15:34;;;;;;;22.03;11.37;;;;;;;;;;5005238;28;20726;-81
2021/12/08 15:18:01;;;;;;;21.37;10.77;;;;;;;;;;5005329;28;20307;-81
2021/12/08 15:20:33;;;;;;;25.43;11.40;;;;;;;;;;5006426;28;20216;-80
2021/12/08 15:23:02;;;;;;;26.90;12.20;;;;;;;;;;5004770;28;20302;-80